Glenwood, MN

5:26 AM CDT on April 02, 2015 (GMT -0500)
Chandler | | Change Station
CLOSE
Current Station
Airport
Location: Alexandria,
Elevation: 1424 ft
Nearby Weather Stations
Active Advisory: Fire Weather Warning Active Notice: Record Report

Elev 1424 ft 45.87 °N, 95.39 °W | Updated 33 minutes ago

Partly Cloudy
Partly Cloudy
35 °F
Feels Like 30 °F
N
6
Wind Variable Wind from WSW

Today
High -- | Low -- °F
--% Chance of Precip.
Yesterday
High -- | Low -- °F
Precip. -- in
7:00 AM 7:50 PM
Waxing Gibbous, 96% visible
Pressure 29.73 in
Visibility 10.0 miles
Clouds Clear
Windchill 30 °F
Dew Point 30 °F
Humidity 82%
Rainfall 0.00 in
Snow Depth Not available.
UV 0 out of 12
Pollen 5.50 out of 12
Air Quality Not available.
Flu Activity Not available.
METAR KAXN 020953Z AUTO 24005KT 10SM CLR 02/M01 A2971 RMK AO2 SLP067 T00171011

More Conditions Fewer Conditions

Pressure 29.73 in
Visibility 10.0 miles
Clouds Clear
Windchill 30 °F
Dew Point 30 °F
Humidity 82%
Rainfall 0.00 in
Snow Depth Not available.
UV 0 out of 12
Pollen 5.50 out of 12
Air Quality Not available.
Flu Activity Not available.
METAR KAXN 020953Z AUTO 24005KT 10SM CLR 02/M01 A2971 RMK AO2 SLP067 T00171011

More Conditions Fewer Conditions

10-Day Weather Forecast

Almanac

Astronomy

Apr. 02, 2015 Rise Set
Actual Time
Civil Twilight
Nautical Twilight
Astronomical Twilight
Moon
Length of Visible Light
Length of Day
Tomorrow will be .
, % of the Moon is Illuminated

Today's Extremes

State Highs State Lows

Community

WunderPhotos

Upload Photos

1,810,216 photos uploaded!

WunderBlogs® & News

Nearby

Air Quality

  Air Quality AQ Index Pollutant
Not available.

Snow Depth

Station Depth Elevation

Earthquake Activity

City Distance Mag. Time & Date
Minimum magnitude displayed is 2.5.

Coastal Water Temperatures

Place Temperature

Stations

Nearby Weather Stations

Station Location Temp. Windchill Dew Point Humidity Wind Precip. Elev Updated Type
                   
Fire Weather Warning
Statement as of 4:06 AM CDT on April 02, 2015

... Red flag warning remains in effect from 10 am this morning to
7 PM CDT this evening for dry... windy conditions for fire weather
zones
047... 048... 049... 054... 055... 056... 057... 058... 064... 065... 066...
067... 073... 074... 075... 082... 083... 091 and 092...

* wind... sustained west 20 to 30 mph with gusts to 40 mph.

* Humidity... falling to around 15 percent Thursday afternoon.

* Impacts... any fires that develop will likely spread rapidly.
Outdoor burning is not recommended.

Precautionary/preparedness actions...

A red flag warning means that critical fire weather conditions
will occur today. A combination of strong winds... low relative
humidity... and warm temperatures can contribute to extreme fire
behavior.